Terminal Aerodrome Forecast
Issued by NWS Tuscon, AZ

Home | Current Version | Previous Version | Text Only | Print | Product List | Glossary On
Versions: 1 2 3 4 5 6 7 8 9 10 11 12 13 14 15 16 17 18 19 20 21 22
000
FTUS45 KTWC 011138
TAFTUS
TAF
KTUS 011138Z 0112/0212 14006KT P6SM FEW120 BKN250
     FM011800 18005KT P6SM FEW100 SCT250
     FM012200 29010KT P6SM VCTS SCT100CB BKN250
     FM020100 07010KT P6SM VCSH BKN100
     FM020500 12012KT P6SM SCT100 BKN250=

USA.gov is the U.S. government's official web portal to all federal, state and local government web resources and services.